Time;durP1;ratioP1;P1;durP2;ratioP2;P2;SDS_P1;SDS_P2;PMS_P1;PMS_P2;Temp;Humidity;BMP_temperature;BMP_pressure;BME280_temperature;BME280_humidity;BME280_pressure;Samples;Min_cycle;Max_cycle;Signal;HPM_P1;HPM_P2
2022/04/22 00:01:41;;;;;;;67.82;35.17;;;5.40;99.90;;;;;;4998731;28;20442;-85
2022/04/22 00:04:07;;;;;;;69.40;34.17;;;5.40;99.90;;;;;;4982742;28;20050;-85
2022/04/22 00:06:32;;;;;;;67.53;34.40;;;5.40;99.90;;;;;;4998595;28;20025;-85
2022/04/22 00:08:58;;;;;;;74.55;36.20;;;5.40;99.90;;;;;;4998422;28;20041;-84
2022/04/22 00:11:29;;;;;;;78.10;38.05;;;5.40;99.90;;;;;;4998834;28;20125;-85
2022/04/22 00:13:56;;;;;;;;;;;5.30;99.90;;;;;;4982609;28;20132;-85
2022/04/22 00:17:14;;;;;;;73.22;35.53;;;5.30;99.90;;;;;;4998435;28;20296;-84
2022/04/22 00:19:40;;;;;;;68.20;35.05;;;5.20;99.90;;;;;;4982682;28;20065;-85
2022/04/22 00:22:06;;;;;;;71.40;36.38;;;5.20;99.90;;;;;;5031356;28;20097;-85
2022/04/22 00:24:31;;;;;;;80.85;38.45;;;5.20;99.90;;;;;;4998918;28;20037;-85
2022/04/22 00:26:57;;;;;;;77.25;38.55;;;5.30;99.90;;;;;;5031225;28;20030;-85
2022/04/22 00:29:24;;;;;;;70.63;36.55;;;5.30;99.90;;;;;;4998633;28;20053;-84
2022/04/22 00:31:49;;;;;;;80.78;41.30;;;5.20;99.90;;;;;;4998540;28;20041;-85
2022/04/22 00:34:15;;;;;;;73.82;37.40;;;5.30;99.90;;;;;;4998948;28;20034;-84
2022/04/22 00:36:41;;;;;;;75.28;37.50;;;5.30;99.90;;;;;;4998799;28;20038;-85
2022/04/22 00:39:06;;;;;;;77.68;40.17;;;5.20;99.90;;;;;;5014874;28;20026;-85
2022/04/22 00:41:32;;;;;;;80.93;40.40;;;5.20;99.90;;;;;;5014710;28;20113;-84
2022/04/22 00:43:58;;;;;;;82.03;41.30;;;5.20;99.90;;;;;;5014560;28;20030;-85
2022/04/22 00:46:24;;;;;;;88.68;43.45;;;5.20;99.90;;;;;;4997815;28;20037;-85
2022/04/22 00:48:49;;;;;;;87.03;41.00;;;5.20;99.90;;;;;;4998383;28;20393;-85
2022/04/22 00:51:16;;;;;;;81.78;41.25;;;5.10;99.90;;;;;;5014868;28;20041;-84
2022/04/22 00:53:46;;;;;;;92.22;44.05;;;5.10;99.90;;;;;;5031106;28;20037;-85
2022/04/22 00:56:12;;;;;;;88.65;42.80;;;5.10;99.90;;;;;;4997977;28;20045;-84
2022/04/22 00:58:40;;;;;;;86.43;42.45;;;5.10;99.90;;;;;;4998211;28;20388;-84
2022/04/22 01:01:06;;;;;;;95.10;44.95;;;5.10;99.90;;;;;;4998164;28;20069;-84
2022/04/22 01:09:51;;;;;;;98.43;43.33;;;5.00;99.90;;;;;;4938713;29;20031;-85
2022/04/22 01:12:18;;;;;;;96.07;46.28;;;5.00;99.90;;;;;;4997282;28;20041;-84
2022/04/22 01:14:46;;;;;;;100.85;44.85;;;5.10;99.90;;;;;;5030356;28;20412;-85
2022/04/22 01:17:12;;;;;;;102.28;46.90;;;5.10;99.90;;;;;;4997159;28;20030;-84
2022/04/22 01:19:38;;;;;;;92.82;45.33;;;5.00;99.90;;;;;;4997361;28;20113;-85
2022/04/22 01:22:05;;;;;;;110.43;49.75;;;5.00;99.90;;;;;;5013320;28;20446;-85
2022/04/22 01:24:31;;;;;;;106.38;47.05;;;4.90;99.90;;;;;;4997033;28;20026;-85
2022/04/22 01:26:57;;;;;;;102.80;45.95;;;4.90;99.90;;;;;;5030034;28;20506;-85
2022/04/22 01:29:23;;;;;;;109.88;49.30;;;4.90;99.90;;;;;;5014768;28;20080;-86
2022/04/22 01:31:49;;;;;;;109.05;48.10;;;4.90;99.90;;;;;;4997085;28;20172;-85
2022/04/22 01:34:16;;;;;;;105.50;48.05;;;4.90;99.90;;;;;;4996978;28;20493;-85
2022/04/22 01:36:42;;;;;;;109.55;48.60;;;4.90;99.90;;;;;;4997028;28;20393;-85
2022/04/22 01:39:08;;;;;;;100.93;49.47;;;4.90;99.90;;;;;;5013613;28;20030;-85
2022/04/22 01:41:34;;;;;;;110.75;49.13;;;4.90;99.90;;;;;;5013367;28;20034;-85
2022/04/22 01:43:59;;;;;;;113.88;49.70;;;4.90;99.90;;;;;;5014686;28;20389;-85
2022/04/22 01:46:25;;;;;;;110.70;49.22;;;4.90;99.90;;;;;;4997137;28;20030;-85
2022/04/22 01:48:51;;;;;;;116.40;52.67;;;4.90;99.90;;;;;;4997433;28;20439;-85
2022/04/22 01:51:16;;;;;;;112.78;47.25;;;4.80;99.90;;;;;;5013453;28;20030;-85
2022/04/22 01:53:42;;;;;;;120.10;52.10;;;4.80;99.90;;;;;;5014228;28;20057;-85
2022/04/22 01:56:08;;;;;;;112.25;50.72;;;4.80;99.90;;;;;;5029838;28;20073;-84
2022/04/22 01:58:34;;;;;;;118.15;53.15;;;4.90;99.90;;;;;;4996580;28;20029;-85
2022/04/22 02:00:59;;;;;;;122.70;53.45;;;4.80;99.90;;;;;;5013234;28;20037;-84
2022/04/22 02:03:25;;;;;;;119.18;52.67;;;4.80;99.90;;;;;;4980535;28;20087;-85
2022/04/22 02:05:51;;;;;;;129.73;52.45;;;4.80;99.90;;;;;;4997107;28;20065;-85
2022/04/22 02:08:16;;;;;;;129.80;53.00;;;4.80;99.90;;;;;;4996087;28;20112;-85
2022/04/22 02:10:43;;;;;;;124.63;52.92;;;4.70;99.90;;;;;;4996277;28;20041;-85
2022/04/22 02:13:09;;;;;;;129.38;52.17;;;4.70;99.90;;;;;;4996982;28;20385;-85
2022/04/22 02:15:35;;;;;;;129.45;53.20;;;4.80;99.90;;;;;;4996704;28;20034;-85
2022/04/22 02:18:01;;;;;;;127.45;52.78;;;4.70;99.90;;;;;;5013005;28;20026;-85
2022/04/22 02:20:26;;;;;;;140.35;57.40;;;4.70;99.90;;;;;;5029080;28;20036;-84
2022/04/22 02:22:52;;;;;;;125.00;54.58;;;4.80;99.90;;;;;;4996631;28;20065;-85
2022/04/22 02:25:18;;;;;;;126.07;54.47;;;4.80;99.90;;;;;;4996644;28;20040;-85
2022/04/22 02:30:47;;;;;;;132.43;56.35;;;4.90;99.90;;;;;;5029431;28;20038;-85
2022/04/22 02:33:14;;;;;;;127.63;54.70;;;4.70;99.90;;;;;;4996594;28;20034;-84
2022/04/22 02:35:40;;;;;;;123.90;51.55;;;4.70;99.90;;;;;;4996326;28;20104;-84
2022/04/22 02:38:05;;;;;;;132.05;56.13;;;4.80;99.90;;;;;;4995924;28;20497;-85
2022/04/22 02:46:00;;;;;;;133.32;55.13;;;4.70;99.90;;;;;;5028938;28;20779;-84
2022/04/22 02:48:25;;;;;;;133.68;53.85;;;4.60;99.90;;;;;;4995508;28;20169;-85
2022/04/22 02:50:51;;;;;;;129.35;53.40;;;4.60;99.90;;;;;;4996111;28;20025;-85
2022/04/22 02:53:17;;;;;;;137.07;55.67;;;4.70;99.90;;;;;;5029192;28;20069;-85
2022/04/22 02:55:50;;;;;;;120.78;53.83;;;4.70;99.90;;;;;;4980108;28;20172;-84
2022/04/22 02:58:15;;;;;;;131.07;55.00;;;4.60;99.90;;;;;;4995824;28;20029;-85
2022/04/22 03:00:41;;;;;;;133.07;55.40;;;4.70;99.90;;;;;;5011731;28;20382;-85
2022/04/22 03:03:07;;;;;;;130.35;56.08;;;4.70;99.90;;;;;;4995703;28;20585;-85
2022/04/22 03:05:34;;;;;;;132.85;54.85;;;4.60;99.90;;;;;;4996048;28;20491;-85
2022/04/22 03:08:25;;;;;;;122.10;52.05;;;4.70;99.90;;;;;;5028562;28;20392;-85
2022/04/22 03:10:51;;;;;;;125.85;52.97;;;4.70;99.90;;;;;;4996151;28;20112;-85
2022/04/22 03:13:16;;;;;;;126.50;53.75;;;4.70;99.90;;;;;;5012168;28;20077;-85
2022/04/22 03:15:42;;;;;;;121.68;55.47;;;4.70;99.90;;;;;;5012061;28;20045;-85
2022/04/22 03:18:09;;;;;;;125.90;54.40;;;4.70;99.90;;;;;;4978952;28;20498;-85
2022/04/22 03:20:35;;;;;;;126.35;52.83;;;4.60;99.90;;;;;;4994671;28;20079;-85
2022/04/22 03:23:00;;;;;;;121.15;53.22;;;4.60;99.90;;;;;;4979191;28;20112;-85
2022/04/22 03:25:26;;;;;;;122.93;54.05;;;4.60;99.90;;;;;;4995538;28;20030;-85
2022/04/22 03:31:39;;;;;;;124.85;53.13;;;4.60;99.90;;;;;;5013680;28;20774;-85
2022/04/22 03:34:05;;;;;;;124.35;51.55;;;4.60;99.90;;;;;;5011814;28;20041;-85
2022/04/22 03:36:31;;;;;;;117.82;51.55;;;4.60;99.90;;;;;;4995037;28;20052;-85
2022/04/22 03:39:09;;;;;;;122.18;53.95;;;4.60;99.90;;;;;;4995688;28;20109;-85
2022/04/22 03:41:35;;;;;;;124.60;52.38;;;4.60;99.90;;;;;;4995207;28;20061;-84
2022/04/22 03:44:01;;;;;;;129.32;54.10;;;4.50;99.90;;;;;;4995203;28;20068;-85
2022/04/22 03:46:27;;;;;;;129.95;54.13;;;4.50;99.90;;;;;;4994885;28;20480;-84
2022/04/22 03:48:55;;;;;;;127.65;54.40;;;4.50;99.90;;;;;;4994934;28;20053;-85
2022/04/22 03:51:20;;;;;;;118.20;52.42;;;4.60;99.90;;;;;;5011396;28;20029;-85
2022/04/22 03:53:49;;;;;;;131.10;55.90;;;4.50;99.90;;;;;;5028051;28;20465;-85
2022/04/22 03:58:59;;;;;;;121.88;52.25;;;4.60;99.90;;;;;;5013089;28;20062;-85
2022/04/22 04:01:24;;;;;;;119.68;53.55;;;4.50;99.90;;;;;;4995163;28;20068;-85
2022/04/22 04:03:50;;;;;;;129.85;55.00;;;4.50;99.90;;;;;;4995169;28;20534;-85
2022/04/22 04:06:15;;;;;;;126.70;53.58;;;4.60;99.90;;;;;;4995309;28;20482;-84
2022/04/22 04:15:57;;;;;;;124.60;54.45;;;4.50;99.90;;;;;;5027724;28;20042;-84
2022/04/22 04:16:55;;;;;;;124.70;54.40;;;4.40;99.90;;;;;;5027551;28;20050;-85
2022/04/22 04:24:51;;;;;;;125.63;52.60;;;4.40;99.90;;;;;;4994553;28;20029;-83
2022/04/22 04:27:16;;;;;;;123.30;52.90;;;4.40;99.90;;;;;;5010501;28;20029;-83
2022/04/22 04:29:42;;;;;;;140.35;55.13;;;4.40;99.90;;;;;;4994584;28;20438;-83
2022/04/22 04:32:08;;;;;;;135.77;54.10;;;4.40;99.90;;;;;;5029098;28;20030;-83
2022/04/22 04:34:34;;;;;;;135.48;55.05;;;4.40;99.90;;;;;;4998306;28;20022;-83
2022/04/22 04:36:59;;;;;;;125.75;54.30;;;4.40;99.90;;;;;;4994383;28;20066;-82
2022/04/22 04:39:25;;;;;;;118.20;53.30;;;4.40;99.90;;;;;;4997258;28;20517;-82
2022/04/22 04:41:53;;;;;;;126.13;54.65;;;4.40;99.90;;;;;;4998053;28;20041;-82
2022/04/22 04:44:19;;;;;;;127.38;53.92;;;4.50;99.90;;;;;;5014427;28;20022;-83
2022/04/22 04:46:45;;;;;;;117.32;49.67;;;4.50;99.90;;;;;;4997780;28;20425;-83
2022/04/22 04:49:10;;;;;;;117.28;48.47;;;4.50;99.90;;;;;;4998135;28;20029;-82
2022/04/22 04:51:36;;;;;;;106.75;47.63;;;4.50;99.90;;;;;;5009821;28;20084;-82
2022/04/22 04:54:02;;;;;;;102.88;47.75;;;4.50;99.90;;;;;;5015344;28;20072;-83
2022/04/22 04:56:27;;;;;;;112.78;48.38;;;4.50;99.90;;;;;;5013866;28;20121;-82
2022/04/22 04:58:53;;;;;;;103.10;47.63;;;4.60;99.90;;;;;;4997366;28;20038;-83
2022/04/22 05:01:19;;;;;;;100.05;45.42;;;4.60;99.90;;;;;;4981315;28;20054;-83
2022/04/22 05:03:44;;;;;;;96.70;44.63;;;4.70;99.90;;;;;;4997618;28;20026;-83
2022/04/22 05:06:12;;;;;;;96.20;43.83;;;4.70;99.90;;;;;;4997882;28;20029;-83
2022/04/22 05:08:38;;;;;;;97.93;43.90;;;4.70;99.90;;;;;;4996925;28;20026;-83
2022/04/22 05:11:03;;;;;;;91.88;42.05;;;4.70;99.90;;;;;;4997279;28;20489;-83
2022/04/22 05:13:29;;;;;;;90.80;42.97;;;4.70;99.90;;;;;;5013605;28;20041;-83
2022/04/22 05:15:56;;;;;;;83.65;39.28;;;4.80;99.90;;;;;;4980812;28;20033;-83
2022/04/22 05:18:22;;;;;;;88.30;40.40;;;4.80;99.90;;;;;;4997062;28;20069;-83
2022/04/22 05:20:48;;;;;;;83.28;39.55;;;4.90;99.90;;;;;;4997855;28;20478;-83
2022/04/22 05:23:14;;;;;;;85.32;40.80;;;4.90;99.90;;;;;;4997396;28;20493;-82
2022/04/22 05:25:40;;;;;;;78.53;37.95;;;5.00;99.90;;;;;;5029314;28;20037;-83
2022/04/22 05:28:06;;;;;;;73.90;38.10;;;5.00;99.90;;;;;;5013222;28;20030;-83
2022/04/22 05:33:16;;;;;;;77.05;38.53;;;5.10;99.90;;;;;;5029977;28;20030;-82
2022/04/22 05:35:45;;;;;;;72.75;36.33;;;5.10;99.90;;;;;;5013178;28;20589;-83
2022/04/22 05:38:11;;;;;;;141.80;69.28;;;5.10;99.90;;;;;;5013050;28;20037;-83
2022/04/22 05:40:38;;;;;;;68.40;35.72;;;5.20;99.90;;;;;;5012795;28;20133;-83
2022/04/22 05:43:08;;;;;;;69.00;35.10;;;5.20;99.90;;;;;;4995679;28;20036;-82
2022/04/22 05:45:36;;;;;;;70.53;35.10;;;5.30;99.90;;;;;;5012944;28;20022;-83
2022/04/22 05:48:02;;;;;;;67.95;35.05;;;5.30;99.90;;;;;;5010327;28;20030;-83
2022/04/22 05:50:28;;;;;;;68.43;36.28;;;5.40;99.90;;;;;;4977997;28;20516;-82
2022/04/22 05:52:55;;;;;;;60.15;32.10;;;5.40;99.90;;;;;;5012248;28;20472;-83
2022/04/22 05:55:26;;;;;;;61.30;32.83;;;5.50;99.90;;;;;;4995610;28;20084;-83
2022/04/22 05:57:53;;;;;;;55.58;31.27;;;5.50;99.90;;;;;;4995709;28;20041;-83
2022/04/22 06:00:24;;;;;;;62.00;32.65;;;5.50;99.90;;;;;;4991948;28;20120;-83
2022/04/22 06:02:51;;;;;;;61.17;31.33;;;5.60;99.90;;;;;;4996064;28;20089;-83
2022/04/22 06:05:20;;;;;;;56.13;30.23;;;5.60;99.90;;;;;;4996089;28;20080;-83
2022/04/22 06:07:47;;;;;;;55.35;30.05;;;5.80;99.90;;;;;;4980098;28;20065;-83
2022/04/22 06:10:32;;;;;;;51.85;29.65;;;5.80;99.90;;;;;;5012863;28;20041;-83
2022/04/22 06:13:01;;;;;;;54.75;28.55;;;5.90;99.90;;;;;;5012799;28;20424;-84
2022/04/22 06:15:27;;;;;;;53.88;29.08;;;6.00;99.90;;;;;;4996225;28;20474;-83
2022/04/22 06:17:53;;;;;;;55.42;29.52;;;6.00;99.90;;;;;;4979635;28;20696;-83
2022/04/22 06:20:19;;;;;;;51.25;28.23;;;6.10;99.90;;;;;;5012200;28;20116;-83
2022/04/22 06:22:44;;;;;;;51.70;28.65;;;6.20;99.90;;;;;;4995857;28;20080;-83
2022/04/22 06:25:10;;;;;;;47.35;27.02;;;6.20;99.90;;;;;;5028879;28;20470;-83
2022/04/22 06:27:40;;;;;;;59.35;27.70;;;6.20;99.90;;;;;;4995629;28;20022;-83
2022/04/22 06:30:06;;;;;;;53.28;28.63;;;6.30;99.90;;;;;;5012490;28;20030;-83
2022/04/22 06:32:32;;;;;;;51.72;27.38;;;6.30;99.90;;;;;;5011477;28;20047;-83
2022/04/22 06:34:58;;;;;;;50.95;26.85;;;6.40;99.90;;;;;;4995656;28;20872;-83
2022/04/22 06:37:24;;;;;;;52.33;27.90;;;6.50;99.90;;;;;;5011922;28;20116;-83
2022/04/22 06:48:04;;;;;;;58.72;30.85;;;6.80;99.90;;;;;;5028198;28;20037;-84
2022/04/22 06:50:56;;;;;;;45.05;25.00;;;6.90;99.90;;;;;;5028545;28;20105;-83
2022/04/22 06:53:52;;;;;;;47.50;24.70;;;7.00;99.90;;;;;;5028142;28;20048;-84
2022/04/22 06:56:23;;;;;;;44.35;23.65;;;7.10;99.90;;;;;;4979350;28;20044;-83
2022/04/22 06:58:51;;;;;;;43.20;25.08;;;7.20;99.90;;;;;;4994342;28;20029;-83
2022/04/22 07:01:17;;;;;;;45.78;24.65;;;7.30;99.90;;;;;;4995154;28;20030;-83
2022/04/22 07:03:43;;;;;;;40.38;25.13;;;7.40;99.90;;;;;;5010362;28;20084;-83
2022/04/22 07:06:09;;;;;;;39.05;23.05;;;7.50;99.90;;;;;;5009291;28;20286;-83
2022/04/22 07:08:35;;;;;;;44.20;23.45;;;7.50;99.90;;;;;;5011150;28;20034;-84
2022/04/22 07:11:03;;;;;;;40.78;22.88;;;7.70;99.90;;;;;;4995773;28;20108;-83
2022/04/22 07:13:29;;;;;;;40.53;23.40;;;7.70;99.90;;;;;;4995874;28;20044;-83
2022/04/22 07:16:07;;;;;;;41.10;24.25;;;7.80;99.90;;;;;;5028522;28;20034;-83
2022/04/22 07:18:33;;;;;;;35.22;22.77;;;7.80;99.90;;;;;;4994936;28;20038;-84
2022/04/22 07:20:59;;;;;;;39.30;23.25;;;7.90;99.90;;;;;;4995046;28;20044;-83
2022/04/22 07:23:25;;;;;;;36.08;21.45;;;8.10;99.90;;;;;;5010980;28;20065;-82
2022/04/22 07:25:51;;;;;;;38.97;23.10;;;8.30;99.90;;;;;;5010600;28;20022;-84
2022/04/22 07:28:17;;;;;;;38.40;22.25;;;8.30;99.90;;;;;;5010762;28;20030;-83
2022/04/22 07:30:50;;;;;;;39.80;22.77;;;8.50;99.90;;;;;;5011373;28;20041;-84
2022/04/22 07:33:16;;;;;;;36.65;22.85;;;8.60;99.90;;;;;;4995842;28;20041;-83
2022/04/22 07:35:42;;;;;;;35.53;22.02;;;8.60;99.90;;;;;;4994915;28;20029;-83
2022/04/22 07:38:10;;;;;;;33.85;21.08;;;8.70;99.90;;;;;;5011260;28;20481;-83
2022/04/22 07:40:37;;;;;;;39.17;22.58;;;8.80;99.90;;;;;;5010977;28;20499;-84
2022/04/22 07:48:34;;;;;;;33.55;21.35;;;9.10;99.90;;;;;;5027793;28;20484;-83
2022/04/22 07:50:59;;;;;;;34.38;20.42;;;9.20;99.90;;;;;;5027634;28;20065;-83
2022/04/22 07:53:25;;;;;;;35.30;20.73;;;9.20;99.90;;;;;;4993323;28;20501;-83
2022/04/22 07:55:51;;;;;;;32.35;20.35;;;9.30;99.90;;;;;;4992076;28;20041;-84
2022/04/22 07:58:17;;;;;;;31.13;20.67;;;9.40;99.90;;;;;;5027602;28;20230;-83
2022/04/22 08:00:46;;;;;;;35.53;20.33;;;9.60;99.90;;;;;;5027540;28;20775;-84
2022/04/22 08:03:13;;;;;;;31.55;20.90;;;9.70;99.90;;;;;;4994171;28;20508;-84
2022/04/22 08:05:39;;;;;;;38.25;19.70;;;9.80;99.90;;;;;;5027648;28;20030;-83
2022/04/22 08:08:06;;;;;;;35.00;20.58;;;9.90;99.90;;;;;;5011367;28;20022;-84
2022/04/22 08:10:32;;;;;;;31.90;19.92;;;9.90;99.90;;;;;;5015255;28;20393;-84
2022/04/22 08:12:58;;;;;;;37.38;21.85;;;9.90;99.90;;;;;;4998546;28;20041;-84
2022/04/22 08:15:24;;;;;;;32.50;19.55;;;9.80;99.90;;;;;;4998972;28;20409;-83
2022/04/22 08:17:50;;;;;;;36.80;20.67;;;9.70;99.90;;;;;;5030839;28;20040;-83
2022/04/22 08:20:17;;;;;;;35.22;21.60;;;9.70;99.90;;;;;;4998207;28;20033;-83
2022/04/22 08:22:45;;;;;;;37.53;20.23;;;9.50;99.90;;;;;;5031338;28;20037;-82
2022/04/22 08:25:12;;;;;;;35.85;21.98;;;9.70;99.90;;;;;;4982170;28;20025;-82
2022/04/22 08:27:38;;;;;;;32.60;19.63;;;9.90;99.90;;;;;;4998195;28;20128;-83
2022/04/22 08:30:06;;;;;;;32.28;21.85;;;10.00;99.90;;;;;;4998306;28;20370;-82
2022/04/22 08:32:32;;;;;;;30.52;19.88;;;10.00;99.90;;;;;;5014732;28;20080;-83
2022/04/22 08:34:57;;;;;;;33.63;21.17;;;10.10;99.90;;;;;;5031567;28;20484;-83
2022/04/22 08:37:23;;;;;;;37.35;22.13;;;10.00;99.90;;;;;;5014574;28;20033;-83
2022/04/22 08:39:49;;;;;;;36.50;22.50;;;10.10;99.90;;;;;;5014709;28;20494;-83
2022/04/22 08:42:15;;;;;;;31.77;19.83;;;10.20;99.90;;;;;;4982438;28;20068;-83
2022/04/22 08:44:41;;;;;;;36.75;22.05;;;10.30;99.90;;;;;;4998570;28;20411;-83
2022/04/22 08:50:13;;;;;;;33.08;19.33;;;10.60;99.90;;;;;;5011597;28;20030;-83
2022/04/22 08:52:42;;;;;;;31.10;19.30;;;10.90;99.90;;;;;;4997313;28;20046;-83
2022/04/22 08:55:08;;;;;;;32.35;18.92;;;11.00;99.90;;;;;;5030752;28;20041;-83
2022/04/22 08:57:34;;;;;;;29.30;20.00;;;11.80;99.90;;;;;;5013533;28;20076;-83
2022/04/22 09:00:03;;;;;;;23.20;16.42;;;13.10;99.90;;;;;;4997655;28;20112;-83
2022/04/22 09:02:29;;;;;;;28.27;17.02;;;14.30;99.90;;;;;;4997728;28;20038;-83
2022/04/22 09:04:56;;;;;;;22.35;16.25;;;15.60;99.90;;;;;;4997277;28;20037;-83
2022/04/22 09:07:28;;;;;;;27.27;16.40;;;16.30;99.90;;;;;;5013087;28;20390;-83
2022/04/22 09:09:54;;;;;;;24.20;16.55;;;16.90;99.90;;;;;;5014488;28;20068;-83
2022/04/22 09:12:23;;;;;;;22.98;17.73;;;17.30;99.90;;;;;;4997948;28;20074;-84
2022/04/22 09:14:51;;;;;;;23.67;17.52;;;17.30;99.90;;;;;;4998064;28;20113;-83
2022/04/22 09:17:34;;;;;;;23.55;17.25;;;17.20;99.90;;;;;;4997497;28;20030;-83
2022/04/22 09:20:03;;;;;;;20.25;16.17;;;17.00;99.90;;;;;;4997692;28;20061;-83
2022/04/22 09:22:36;;;;;;;22.70;17.33;;;17.80;99.90;;;;;;4997297;28;20684;-83
2022/04/22 09:25:02;;;;;;;23.58;17.15;;;17.70;99.90;;;;;;4980772;28;20088;-83
2022/04/22 09:27:35;;;;;;;23.30;16.52;;;17.70;99.90;;;;;;4996743;28;20030;-82
2022/04/22 09:30:03;;;;;;;21.75;17.13;;;18.00;99.90;;;;;;5013232;28;20030;-83
2022/04/22 09:45:08;;;;;;;36.30;19.13;;;17.40;99.90;;;;;;5025490;28;20036;-83
2022/04/22 09:47:35;;;;;;;31.67;18.98;;;16.90;99.90;;;;;;5012793;28;20477;-82
2022/04/22 09:50:10;;;;;;;28.70;18.55;;;16.20;99.90;;;;;;4995770;28;20116;-83
2022/04/22 09:52:36;;;;;;;26.33;18.00;;;15.80;99.90;;;;;;5012244;28;20069;-84
2022/04/22 09:55:04;;;;;;;23.95;17.23;;;15.90;99.90;;;;;;4996478;28;20072;-83
2022/04/22 09:57:48;;;;;;;28.02;17.48;;;15.60;99.90;;;;;;4996159;28;20037;-83
2022/04/22 10:00:16;;;;;;;25.92;17.73;;;15.60;99.90;;;;;;4996058;28;20060;-83
2022/04/22 10:02:43;;;;;;;30.48;19.48;;;15.70;99.90;;;;;;5012836;28;20722;-83
2022/04/22 10:05:11;;;;;;;25.05;18.20;;;15.70;99.90;;;;;;4996575;28;20041;-83
2022/04/22 10:07:36;;;;;;;24.08;18.08;;;15.50;99.90;;;;;;4992134;28;20552;-84
2022/04/22 10:10:03;;;;;;;24.83;18.00;;;15.40;99.90;;;;;;4996341;28;20057;-83
2022/04/22 10:12:30;;;;;;;24.77;18.75;;;15.70;99.90;;;;;;4996664;28;20030;-83
2022/04/22 10:15:00;;;;;;;22.58;17.27;;;15.70;99.90;;;;;;4996796;28;20105;-83
2022/04/22 10:17:26;;;;;;;28.05;18.60;;;15.50;99.90;;;;;;4995724;28;20058;-83
2022/04/22 10:19:53;;;;;;;25.38;17.15;;;15.30;99.90;;;;;;4996408;28;20041;-83
2022/04/22 10:22:21;;;;;;;26.52;17.85;;;15.30;99.90;;;;;;5029042;28;20543;-83
2022/04/22 10:24:49;;;;;;;24.90;18.42;;;15.40;99.90;;;;;;4996240;28;20033;-82
2022/04/22 10:27:42;;;;;;;23.35;18.05;;;15.50;99.90;;;;;;4980060;28;20025;-84
2022/04/22 10:30:10;;;;;;;25.33;17.23;;;15.70;99.90;;;;;;5027809;28;20485;-83
2022/04/22 10:32:41;;;;;;;22.98;17.13;;;16.00;99.90;;;;;;4995957;28;20045;-83
2022/04/22 10:35:07;;;;;;;22.58;17.73;;;16.90;99.90;;;;;;4995742;28;20128;-83
2022/04/22 10:37:38;;;;;;;24.63;15.70;;;17.30;99.90;;;;;;5028236;28;20543;-83
2022/04/22 10:40:05;;;;;;;20.20;15.98;;;17.80;99.90;;;;;;4991899;28;20053;-83
2022/04/22 10:42:31;;;;;;;22.67;16.55;;;18.00;99.90;;;;;;5012231;28;20033;-83
2022/04/22 10:48:29;;;;;;;24.83;16.83;;;17.70;99.90;;;;;;5028569;28;20113;-83
2022/04/22 10:51:02;;;;;;;29.17;17.30;;;17.60;99.90;;;;;;4995981;28;20033;-83
2022/04/22 10:53:33;;;;;;;26.85;16.88;;;17.60;99.90;;;;;;4995662;28;20129;-83
2022/04/22 10:56:30;;;;;;;19.33;15.02;;;18.00;99.30;;;;;;4995627;28;20092;-82
2022/04/22 10:59:15;;;;;;;22.88;14.43;;;18.50;98.40;;;;;;4979260;28;20040;-83
2022/04/22 11:01:42;;;;;;;26.40;15.65;;;18.70;97.30;;;;;;4995581;28;20052;-83
2022/04/22 11:04:24;;;;;;;23.85;16.27;;;19.00;96.60;;;;;;4995624;28;20044;-83
2022/04/22 11:06:50;;;;;;;19.85;15.63;;;18.90;95.80;;;;;;4995681;28;20033;-83
2022/04/22 11:09:31;;;;;;;17.40;13.70;;;18.90;96.70;;;;;;5012875;28;20041;-83
2022/04/22 11:11:58;;;;;;;20.45;13.65;;;19.10;94.50;;;;;;4995703;28;20034;-84
2022/04/22 11:14:26;;;;;;;15.82;12.20;;;19.40;95.40;;;;;;4995142;28;20088;-83
2022/04/22 11:16:54;;;;;;;18.10;13.27;;;19.50;94.50;;;;;;5027872;28;20125;-83
2022/04/22 11:19:19;;;;;;;17.20;13.25;;;19.90;92.10;;;;;;4995097;28;20128;-83
2022/04/22 11:21:53;;;;;;;27.00;13.82;;;20.10;93.00;;;;;;5011577;28;20125;-83
2022/04/22 11:24:30;;;;;;;18.88;14.00;;;19.80;92.40;;;;;;4995333;28;20026;-83
2022/04/22 11:27:08;;;;;;;23.23;14.48;;;20.10;91.60;;;;;;5028087;28;20033;-84
2022/04/22 11:29:34;;;;;;;28.52;14.50;;;20.40;92.10;;;;;;4995437;28;20025;-84
2022/04/22 11:32:20;;;;;;;19.00;14.60;;;20.70;89.60;;;;;;4995183;28;20026;-84
2022/04/22 11:35:11;;;;;;;17.73;13.95;;;20.10;90.70;;;;;;5024200;28;20077;-84
2022/04/22 11:37:37;;;;;;;19.40;13.07;;;19.90;89.80;;;;;;4994657;28;20030;-83
2022/04/22 11:40:08;;;;;;;18.88;14.20;;;19.90;90.80;;;;;;5028344;28;20029;-83
2022/04/22 11:43:04;;;;;;;16.25;13.60;;;19.60;89.60;;;;;;5010718;28;20034;-84
2022/04/22 11:45:30;;;;;;;16.15;12.90;;;19.90;90.20;;;;;;5012343;28;20033;-83
2022/04/22 11:47:56;;;;;;;20.35;13.63;;;20.60;90.00;;;;;;4994318;28;20664;-83
2022/04/22 11:50:24;;;;;;;16.95;13.93;;;20.30;86.40;;;;;;5011181;28;20397;-83
2022/04/22 11:52:56;;;;;;;19.65;13.05;;;20.50;89.10;;;;;;5012248;28;20057;-83
2022/04/22 11:55:22;;;;;;;15.30;13.07;;;21.10;88.50;;;;;;4994603;28;20513;-84
2022/04/22 11:57:49;;;;;;;16.85;12.15;;;21.00;84.60;;;;;;4994749;28;20108;-84
2022/04/22 12:06:03;;;;;;;18.20;13.52;;;20.50;85.30;;;;;;5010295;28;20035;-83
2022/04/22 12:08:29;;;;;;;18.88;14.07;;;20.00;86.70;;;;;;4994602;28;20100;-83
2022/04/22 12:11:20;;;;;;;16.42;13.35;;;19.60;87.10;;;;;;5008608;28;20068;-83
2022/04/22 12:13:49;;;;;;;25.25;13.23;;;19.70;85.40;;;;;;4993210;28;20496;-83
2022/04/22 12:16:28;;;;;;;17.70;12.70;;;19.70;86.50;;;;;;5027726;28;20121;-83
2022/04/22 12:18:55;;;;;;;16.50;13.85;;;19.90;89.20;;;;;;5027395;28;20044;-83
2022/04/22 12:21:22;;;;;;;19.95;12.80;;;19.30;87.50;;;;;;4994646;28;20088;-83
2022/04/22 12:23:56;;;;;;;20.77;14.20;;;19.00;88.90;;;;;;5011201;28;20045;-83
2022/04/22 12:26:24;;;;;;;18.40;13.48;;;18.90;87.50;;;;;;5011158;28;20698;-83
2022/04/22 12:29:09;;;;;;;19.90;13.73;;;18.90;86.40;;;;;;4976830;28;20069;-82
2022/04/22 12:31:39;;;;;;;19.27;12.85;;;18.40;87.80;;;;;;4993734;28;20034;-83
2022/04/22 12:34:08;;;;;;;26.08;13.90;;;18.50;89.50;;;;;;4994587;28;20075;-83
2022/04/22 12:36:52;;;;;;;22.17;14.18;;;18.50;86.30;;;;;;4994611;28;20030;-83
2022/04/22 12:39:38;;;;;;;17.10;12.32;;;18.20;89.00;;;;;;5010543;28;20375;-83
2022/04/22 12:42:05;;;;;;;17.65;13.35;;;18.70;90.30;;;;;;4978888;28;20038;-83
2022/04/22 12:44:31;;;;;;;19.55;13.82;;;18.70;87.30;;;;;;5010416;28;20041;-83
2022/04/22 12:52:47;;;;;;;14.73;10.65;;;18.90;87.60;;;;;;5028115;28;20042;-83
2022/04/22 12:55:17;;;;;;;15.40;10.27;;;19.30;84.60;;;;;;5014201;28;20097;-83
2022/04/22 12:57:42;;;;;;;14.32;10.88;;;19.60;84.00;;;;;;4997647;28;20030;-83
2022/04/22 13:00:16;;;;;;;16.75;11.65;;;19.70;84.50;;;;;;5013828;28;20106;-83
2022/04/22 13:02:42;;;;;;;17.98;11.60;;;20.00;82.10;;;;;;5013362;28;20154;-83
2022/04/22 13:05:19;;;;;;;20.88;12.18;;;19.60;80.70;;;;;;5013747;28;20180;-82
2022/04/22 13:07:52;;;;;;;17.83;11.90;;;19.40;84.30;;;;;;4997387;28;20030;-82
2022/04/22 13:10:22;;;;;;;15.43;12.45;;;19.70;84.50;;;;;;5014155;28;20029;-84
2022/04/22 13:12:49;;;;;;;17.38;11.10;;;20.20;82.40;;;;;;5014016;28;20686;-82
2022/04/22 13:15:18;;;;;;;14.45;10.65;;;20.70;80.60;;;;;;4997886;28;20049;-82
2022/04/22 13:17:47;;;;;;;18.00;10.77;;;21.30;80.20;;;;;;4993751;28;20034;-82
2022/04/22 13:20:15;;;;;;;15.77;11.18;;;21.20;75.00;;;;;;5014031;28;20507;-82
2022/04/22 13:22:42;;;;;;;17.05;10.73;;;20.30;78.20;;;;;;4997176;28;20737;-81
2022/04/22 13:25:12;;;;;;;15.43;11.30;;;19.80;80.20;;;;;;5009691;28;20026;-81
2022/04/22 13:27:41;;;;;;;15.05;12.02;;;19.30;80.50;;;;;;5012647;28;20081;-84
2022/04/22 13:30:09;;;;;;;15.43;12.23;;;19.00;80.60;;;;;;5029953;28;20451;-82
2022/04/22 13:32:35;;;;;;;14.32;11.52;;;19.00;83.10;;;;;;5013565;28;20166;-82
2022/04/22 13:35:04;;;;;;;17.05;10.10;;;19.60;82.30;;;;;;5030072;28;20541;-82
2022/04/22 13:37:33;;;;;;;18.20;11.52;;;19.10;80.60;;;;;;5030250;28;20125;-82
2022/04/22 13:39:59;;;;;;;24.13;10.85;;;18.90;83.00;;;;;;4997274;28;20037;-82
2022/04/22 13:42:25;;;;;;;14.02;10.77;;;18.80;83.00;;;;;;4997211;28;20379;-82
2022/04/22 13:53:04;;;;;;;18.35;11.82;;;19.00;82.40;;;;;;5013347;28;20091;-82
2022/04/22 13:55:30;;;;;;;15.75;10.32;;;19.30;78.90;;;;;;5014634;28;20049;-82
2022/04/22 13:57:56;;;;;;;11.43;8.77;;;18.90;83.40;;;;;;4996459;28;20034;-82
2022/04/22 14:00:23;;;;;;;11.07;9.18;;;18.80;81.70;;;;;;4996987;28;20045;-82
2022/04/22 14:02:49;;;;;;;15.77;10.30;;;18.10;80.80;;;;;;4996557;28;20041;-82
2022/04/22 14:05:21;;;;;;;12.88;9.15;;;17.90;85.60;;;;;;4995650;28;20397;-82